sensor_id;sensor_type;location;lat;lon;timestamp;P1;durP1;ratioP1;P2;durP2;ratioP2
46751;SDS011;32497;48.936;9.270;2023-06-05T00:03:08;2.95;;;1.23;;
46751;SDS011;32497;48.936;9.270;2023-06-05T00:08:29;1.98;;;1.33;;
46751;SDS011;32497;48.936;9.270;2023-06-05T00:13:51;3.38;;;1.50;;
46751;SDS011;32497;48.936;9.270;2023-06-05T00:19:12;2.58;;;1.55;;
46751;SDS011;32497;48.936;9.270;2023-06-05T00:24:33;2.80;;;1.38;;
46751;SDS011;32497;48.936;9.270;2023-06-05T00:29:56;1.48;;;1.00;;
46751;SDS011;32497;48.936;9.270;2023-06-05T00:35:17;2.58;;;1.50;;
46751;SDS011;32497;48.936;9.270;2023-06-05T00:40:38;4.03;;;1.50;;
46751;SDS011;32497;48.936;9.270;2023-06-05T00:46:01;1.73;;;1.10;;
46751;SDS011;32497;48.936;9.270;2023-06-05T00:51:23;5.78;;;1.90;;
46751;SDS011;32497;48.936;9.270;2023-06-05T00:56:45;2.25;;;1.42;;
46751;SDS011;32497;48.936;9.270;2023-06-05T01:02:07;2.22;;;1.30;;
46751;SDS011;32497;48.936;9.270;2023-06-05T01:07:28;2.00;;;1.20;;
46751;SDS011;32497;48.936;9.270;2023-06-05T01:12:50;1.90;;;1.25;;
46751;SDS011;32497;48.936;9.270;2023-06-05T01:18:19;2.42;;;1.70;;
46751;SDS011;32497;48.936;9.270;2023-06-05T01:23:43;2.47;;;1.40;;
46751;SDS011;32497;48.936;9.270;2023-06-05T01:29:04;2.42;;;1.40;;
46751;SDS011;32497;48.936;9.270;2023-06-05T01:34:30;2.93;;;1.53;;
46751;SDS011;32497;48.936;9.270;2023-06-05T01:39:53;2.15;;;1.48;;
46751;SDS011;32497;48.936;9.270;2023-06-05T01:45:16;2.40;;;1.45;;
46751;SDS011;32497;48.936;9.270;2023-06-05T01:50:39;2.80;;;1.30;;
46751;SDS011;32497;48.936;9.270;2023-06-05T01:56:01;2.53;;;1.30;;
46751;SDS011;32497;48.936;9.270;2023-06-05T02:01:23;2.60;;;1.33;;
46751;SDS011;32497;48.936;9.270;2023-06-05T02:06:44;2.20;;;1.20;;
46751;SDS011;32497;48.936;9.270;2023-06-05T02:12:08;1.67;;;1.17;;
46751;SDS011;32497;48.936;9.270;2023-06-05T02:17:29;2.73;;;1.47;;
46751;SDS011;32497;48.936;9.270;2023-06-05T02:22:51;2.43;;;1.30;;
46751;SDS011;32497;48.936;9.270;2023-06-05T02:28:14;2.67;;;1.50;;
46751;SDS011;32497;48.936;9.270;2023-06-05T02:33:35;1.87;;;1.30;;
46751;SDS011;32497;48.936;9.270;2023-06-05T02:38:56;3.07;;;1.50;;
46751;SDS011;32497;48.936;9.270;2023-06-05T02:44:19;2.13;;;1.60;;
46751;SDS011;32497;48.936;9.270;2023-06-05T02:49:40;2.23;;;1.47;;
46751;SDS011;32497;48.936;9.270;2023-06-05T02:55:01;3.53;;;1.50;;
46751;SDS011;32497;48.936;9.270;2023-06-05T03:00:24;4.43;;;1.30;;
46751;SDS011;32497;48.936;9.270;2023-06-05T03:05:48;4.37;;;1.50;;
46751;SDS011;32497;48.936;9.270;2023-06-05T03:11:11;2.33;;;1.40;;
46751;SDS011;32497;48.936;9.270;2023-06-05T03:16:34;2.97;;;1.47;;
46751;SDS011;32497;48.936;9.270;2023-06-05T03:21:56;2.90;;;1.53;;
46751;SDS011;32497;48.936;9.270;2023-06-05T03:27:18;2.67;;;1.50;;
46751;SDS011;32497;48.936;9.270;2023-06-05T03:32:41;2.33;;;1.43;;
46751;SDS011;32497;48.936;9.270;2023-06-05T03:38:02;2.40;;;1.50;;
46751;SDS011;32497;48.936;9.270;2023-06-05T03:43:24;3.37;;;1.53;;
46751;SDS011;32497;48.936;9.270;2023-06-05T03:48:47;2.87;;;1.40;;
46751;SDS011;32497;48.936;9.270;2023-06-05T03:54:09;3.37;;;1.67;;
46751;SDS011;32497;48.936;9.270;2023-06-05T03:59:30;2.70;;;1.70;;
46751;SDS011;32497;48.936;9.270;2023-06-05T04:04:56;2.20;;;1.50;;
46751;SDS011;32497;48.936;9.270;2023-06-05T04:10:18;2.70;;;1.60;;
46751;SDS011;32497;48.936;9.270;2023-06-05T04:15:39;2.60;;;1.60;;
46751;SDS011;32497;48.936;9.270;2023-06-05T04:21:02;4.53;;;2.13;;
46751;SDS011;32497;48.936;9.270;2023-06-05T04:26:24;2.53;;;1.60;;
46751;SDS011;32497;48.936;9.270;2023-06-05T04:31:45;4.27;;;1.80;;
46751;SDS011;32497;48.936;9.270;2023-06-05T04:37:08;4.23;;;1.90;;
46751;SDS011;32497;48.936;9.270;2023-06-05T04:42:31;4.53;;;2.03;;
46751;SDS011;32497;48.936;9.270;2023-06-05T04:47:53;4.77;;;2.30;;
46751;SDS011;32497;48.936;9.270;2023-06-05T04:52:59;3.03;;;1.83;;
46751;SDS011;32497;48.936;9.270;2023-06-05T04:58:00;3.50;;;1.80;;
46751;SDS011;32497;48.936;9.270;2023-06-05T05:03:04;1.95;;;1.45;;
46751;SDS011;32497;48.936;9.270;2023-06-05T05:08:07;3.47;;;1.70;;
46751;SDS011;32497;48.936;9.270;2023-06-05T05:13:08;2.58;;;1.52;;
46751;SDS011;32497;48.936;9.270;2023-06-05T05:18:09;2.97;;;1.60;;
46751;SDS011;32497;48.936;9.270;2023-06-05T05:23:12;2.75;;;1.58;;
46751;SDS011;32497;48.936;9.270;2023-06-05T05:28:13;3.00;;;1.70;;
46751;SDS011;32497;48.936;9.270;2023-06-05T05:33:16;5.80;;;2.10;;
46751;SDS011;32497;48.936;9.270;2023-06-05T05:38:19;6.28;;;1.67;;
46751;SDS011;32497;48.936;9.270;2023-06-05T05:43:20;5.15;;;1.90;;
46751;SDS011;32497;48.936;9.270;2023-06-05T05:48:21;3.78;;;1.73;;
46751;SDS011;32497;48.936;9.270;2023-06-05T05:53:24;3.47;;;2.33;;
46751;SDS011;32497;48.936;9.270;2023-06-05T05:58:25;5.72;;;2.60;;
46751;SDS011;32497;48.936;9.270;2023-06-05T06:03:26;3.45;;;2.00;;
46751;SDS011;32497;48.936;9.270;2023-06-05T06:08:29;4.03;;;1.85;;
46751;SDS011;32497;48.936;9.270;2023-06-05T06:13:30;5.97;;;2.28;;
46751;SDS011;32497;48.936;9.270;2023-06-05T06:18:31;3.38;;;1.95;;
46751;SDS011;32497;48.936;9.270;2023-06-05T06:23:34;5.63;;;2.10;;
46751;SDS011;32497;48.936;9.270;2023-06-05T06:28:35;3.25;;;2.00;;
46751;SDS011;32497;48.936;9.270;2023-06-05T06:33:36;2.20;;;1.98;;
46751;SDS011;32497;48.936;9.270;2023-06-05T06:38:39;5.03;;;2.00;;
46751;SDS011;32497;48.936;9.270;2023-06-05T06:43:40;4.22;;;1.77;;
46751;SDS011;32497;48.936;9.270;2023-06-05T06:48:41;4.80;;;2.08;;
46751;SDS011;32497;48.936;9.270;2023-06-05T06:53:44;4.60;;;2.00;;
46751;SDS011;32497;48.936;9.270;2023-06-05T06:58:45;6.32;;;2.20;;
46751;SDS011;32497;48.936;9.270;2023-06-05T07:03:46;3.85;;;2.00;;
46751;SDS011;32497;48.936;9.270;2023-06-05T07:08:49;8.68;;;1.90;;
46751;SDS011;32497;48.936;9.270;2023-06-05T07:13:50;5.25;;;2.08;;
46751;SDS011;32497;48.936;9.270;2023-06-05T07:18:51;4.80;;;2.40;;
46751;SDS011;32497;48.936;9.270;2023-06-05T07:23:53;6.65;;;2.42;;
46751;SDS011;32497;48.936;9.270;2023-06-05T07:28:54;7.32;;;2.40;;
46751;SDS011;32497;48.936;9.270;2023-06-05T07:33:55;5.60;;;2.55;;
46751;SDS011;32497;48.936;9.270;2023-06-05T07:38:58;6.57;;;2.50;;
46751;SDS011;32497;48.936;9.270;2023-06-05T07:43:59;5.18;;;2.63;;
46751;SDS011;32497;48.936;9.270;2023-06-05T07:49:00;3.10;;;2.53;;
46751;SDS011;32497;48.936;9.270;2023-06-05T07:54:02;3.85;;;2.25;;
46751;SDS011;32497;48.936;9.270;2023-06-05T07:59:04;4.13;;;2.30;;
46751;SDS011;32497;48.936;9.270;2023-06-05T08:04:06;4.22;;;2.22;;
46751;SDS011;32497;48.936;9.270;2023-06-05T08:09:09;6.13;;;2.70;;
46751;SDS011;32497;48.936;9.270;2023-06-05T08:14:10;3.95;;;3.08;;
46751;SDS011;32497;48.936;9.270;2023-06-05T08:19:11;2.42;;;2.22;;
46751;SDS011;32497;48.936;9.270;2023-06-05T08:24:14;5.47;;;2.67;;
46751;SDS011;32497;48.936;9.270;2023-06-05T08:29:15;3.40;;;2.58;;
46751;SDS011;32497;48.936;9.270;2023-06-05T08:34:16;4.80;;;2.83;;
46751;SDS011;32497;48.936;9.270;2023-06-05T08:39:19;4.00;;;3.05;;
46751;SDS011;32497;48.936;9.270;2023-06-05T08:44:20;4.95;;;2.90;;
46751;SDS011;32497;48.936;9.270;2023-06-05T08:49:21;8.75;;;3.30;;
46751;SDS011;32497;48.936;9.270;2023-06-05T08:54:27;4.60;;;2.90;;
46751;SDS011;32497;48.936;9.270;2023-06-05T08:59:31;6.10;;;4.00;;
46751;SDS011;32497;48.936;9.270;2023-06-05T09:04:33;5.00;;;3.80;;
46751;SDS011;32497;48.936;9.270;2023-06-05T09:09:35;4.07;;;3.67;;
46751;SDS011;32497;48.936;9.270;2023-06-05T09:14:36;4.22;;;2.97;;
46751;SDS011;32497;48.936;9.270;2023-06-05T09:19:38;3.40;;;2.95;;
46751;SDS011;32497;48.936;9.270;2023-06-05T09:24:41;5.43;;;3.75;;
46751;SDS011;32497;48.936;9.270;2023-06-05T09:29:43;5.15;;;3.72;;
46751;SDS011;32497;48.936;9.270;2023-06-05T09:34:44;6.30;;;4.10;;
46751;SDS011;32497;48.936;9.270;2023-06-05T09:39:49;3.80;;;3.40;;
46751;SDS011;32497;48.936;9.270;2023-06-05T09:44:57;3.30;;;2.90;;
46751;SDS011;32497;48.936;9.270;2023-06-05T09:49:59;4.57;;;3.00;;
46751;SDS011;32497;48.936;9.270;2023-06-05T09:55:01;3.75;;;2.70;;
46751;SDS011;32497;48.936;9.270;2023-06-05T10:00:04;5.22;;;2.58;;
46751;SDS011;32497;48.936;9.270;2023-06-05T10:05:06;2.80;;;2.45;;
46751;SDS011;32497;48.936;9.270;2023-06-05T10:10:13;2.80;;;2.30;;
46751;SDS011;32497;48.936;9.270;2023-06-05T10:15:14;2.97;;;2.35;;
46751;SDS011;32497;48.936;9.270;2023-06-05T10:20:16;3.28;;;1.67;;
46751;SDS011;32497;48.936;9.270;2023-06-05T10:25:19;3.35;;;2.25;;
46751;SDS011;32497;48.936;9.270;2023-06-05T10:30:26;2.47;;;1.90;;
46751;SDS011;32497;48.936;9.270;2023-06-05T10:35:59;2.47;;;2.00;;
46751;SDS011;32497;48.936;9.270;2023-06-05T10:41:10;3.10;;;2.80;;
46751;SDS011;32497;48.936;9.270;2023-06-05T10:46:28;3.10;;;2.10;;
46751;SDS011;32497;48.936;9.270;2023-06-05T10:51:31;2.78;;;2.47;;
46751;SDS011;32497;48.936;9.270;2023-06-05T10:56:53;2.75;;;1.98;;
46751;SDS011;32497;48.936;9.270;2023-06-05T11:07:23;3.13;;;2.78;;
46751;SDS011;32497;48.936;9.270;2023-06-05T11:12:26;3.25;;;2.17;;
46751;SDS011;32497;48.936;9.270;2023-06-05T11:17:27;3.35;;;2.40;;
46751;SDS011;32497;48.936;9.270;2023-06-05T11:22:30;6.07;;;2.53;;
46751;SDS011;32497;48.936;9.270;2023-06-05T11:27:43;2.70;;;2.22;;
46751;SDS011;32497;48.936;9.270;2023-06-05T11:32:45;3.47;;;2.42;;
46751;SDS011;32497;48.936;9.270;2023-06-05T11:37:46;3.10;;;2.20;;
46751;SDS011;32497;48.936;9.270;2023-06-05T11:42:49;3.05;;;2.50;;
46751;SDS011;32497;48.936;9.270;2023-06-05T11:47:50;4.70;;;2.70;;
46751;SDS011;32497;48.936;9.270;2023-06-05T11:52:51;2.53;;;2.30;;
46751;SDS011;32497;48.936;9.270;2023-06-05T11:58:05;3.08;;;2.50;;
46751;SDS011;32497;48.936;9.270;2023-06-05T12:03:10;3.33;;;2.40;;
46751;SDS011;32497;48.936;9.270;2023-06-05T12:08:23;5.15;;;2.35;;
46751;SDS011;32497;48.936;9.270;2023-06-05T12:18:49;4.65;;;2.60;;
46751;SDS011;32497;48.936;9.270;2023-06-05T12:23:50;4.72;;;2.90;;
46751;SDS011;32497;48.936;9.270;2023-06-05T12:29:02;3.30;;;2.80;;
46751;SDS011;32497;48.936;9.270;2023-06-05T12:34:05;4.15;;;2.53;;
46751;SDS011;32497;48.936;9.270;2023-06-05T12:39:06;3.22;;;2.30;;
46751;SDS011;32497;48.936;9.270;2023-06-05T12:44:11;5.57;;;2.70;;
46751;SDS011;32497;48.936;9.270;2023-06-05T12:49:12;2.72;;;2.08;;
46751;SDS011;32497;48.936;9.270;2023-06-05T12:54:13;3.88;;;2.50;;
46751;SDS011;32497;48.936;9.270;2023-06-05T12:59:15;4.75;;;2.63;;
46751;SDS011;32497;48.936;9.270;2023-06-05T13:04:16;3.55;;;2.47;;
46751;SDS011;32497;48.936;9.270;2023-06-05T13:09:17;4.13;;;2.90;;
46751;SDS011;32497;48.936;9.270;2023-06-05T13:14:20;4.07;;;2.72;;
46751;SDS011;32497;48.936;9.270;2023-06-05T13:19:21;3.63;;;2.80;;
46751;SDS011;32497;48.936;9.270;2023-06-05T13:24:22;3.58;;;2.65;;
46751;SDS011;32497;48.936;9.270;2023-06-05T13:29:25;4.32;;;2.53;;
46751;SDS011;32497;48.936;9.270;2023-06-05T13:34:26;7.35;;;2.70;;
46751;SDS011;32497;48.936;9.270;2023-06-05T13:39:27;2.78;;;2.58;;
46751;SDS011;32497;48.936;9.270;2023-06-05T13:44:30;8.63;;;2.40;;
46751;SDS011;32497;48.936;9.270;2023-06-05T13:49:31;3.17;;;2.67;;
46751;SDS011;32497;48.936;9.270;2023-06-05T13:54:32;4.50;;;2.67;;
46751;SDS011;32497;48.936;9.270;2023-06-05T13:59:35;3.10;;;2.72;;
46751;SDS011;32497;48.936;9.270;2023-06-05T14:04:36;2.92;;;2.63;;
46751;SDS011;32497;48.936;9.270;2023-06-05T14:09:37;5.07;;;3.85;;
46751;SDS011;32497;48.936;9.270;2023-06-05T14:14:39;3.95;;;2.78;;
46751;SDS011;32497;48.936;9.270;2023-06-05T14:19:40;3.15;;;2.67;;
46751;SDS011;32497;48.936;9.270;2023-06-05T14:24:42;2.90;;;2.38;;
46751;SDS011;32497;48.936;9.270;2023-06-05T14:29:44;3.25;;;2.00;;
46751;SDS011;32497;48.936;9.270;2023-06-05T14:34:45;3.60;;;2.42;;
46751;SDS011;32497;48.936;9.270;2023-06-05T14:39:46;3.47;;;2.60;;
46751;SDS011;32497;48.936;9.270;2023-06-05T14:44:49;3.78;;;3.20;;
46751;SDS011;32497;48.936;9.270;2023-06-05T14:49:50;3.45;;;2.72;;
46751;SDS011;32497;48.936;9.270;2023-06-05T14:54:51;3.38;;;2.53;;
46751;SDS011;32497;48.936;9.270;2023-06-05T14:59:53;3.35;;;2.75;;
46751;SDS011;32497;48.936;9.270;2023-06-05T15:04:54;2.70;;;2.50;;
46751;SDS011;32497;48.936;9.270;2023-06-05T15:09:55;4.07;;;2.78;;
46751;SDS011;32497;48.936;9.270;2023-06-05T15:14:58;2.85;;;2.40;;
46751;SDS011;32497;48.936;9.270;2023-06-05T15:19:59;3.05;;;2.28;;
46751;SDS011;32497;48.936;9.270;2023-06-05T15:25:00;2.53;;;2.20;;
46751;SDS011;32497;48.936;9.270;2023-06-05T15:30:03;3.10;;;1.90;;
46751;SDS011;32497;48.936;9.270;2023-06-05T15:35:04;4.18;;;2.25;;
46751;SDS011;32497;48.936;9.270;2023-06-05T15:40:06;2.30;;;2.00;;
46751;SDS011;32497;48.936;9.270;2023-06-05T15:45:10;2.97;;;2.05;;
46751;SDS011;32497;48.936;9.270;2023-06-05T15:50:12;3.22;;;2.10;;
46751;SDS011;32497;48.936;9.270;2023-06-05T15:55:13;2.75;;;2.20;;
46751;SDS011;32497;48.936;9.270;2023-06-05T16:00:16;2.85;;;2.22;;
46751;SDS011;32497;48.936;9.270;2023-06-05T16:05:19;2.75;;;2.40;;
46751;SDS011;32497;48.936;9.270;2023-06-05T16:10:20;3.33;;;2.10;;
46751;SDS011;32497;48.936;9.270;2023-06-05T16:15:22;3.97;;;2.20;;
46751;SDS011;32497;48.936;9.270;2023-06-05T16:20:24;4.38;;;2.25;;
46751;SDS011;32497;48.936;9.270;2023-06-05T16:25:25;4.47;;;1.95;;
46751;SDS011;32497;48.936;9.270;2023-06-05T16:30:27;3.60;;;2.20;;
46751;SDS011;32497;48.936;9.270;2023-06-05T16:35:28;3.10;;;2.13;;
46751;SDS011;32497;48.936;9.270;2023-06-05T16:40:30;3.45;;;2.03;;
46751;SDS011;32497;48.936;9.270;2023-06-05T16:45:32;4.30;;;2.30;;
46751;SDS011;32497;48.936;9.270;2023-06-05T16:50:33;3.20;;;2.30;;
46751;SDS011;32497;48.936;9.270;2023-06-05T16:55:34;3.05;;;2.25;;
46751;SDS011;32497;48.936;9.270;2023-06-05T17:00:37;3.38;;;2.40;;
46751;SDS011;32497;48.936;9.270;2023-06-05T17:05:38;5.35;;;2.60;;
46751;SDS011;32497;48.936;9.270;2023-06-05T17:10:39;3.58;;;2.15;;
46751;SDS011;32497;48.936;9.270;2023-06-05T17:15:41;3.22;;;2.50;;
46751;SDS011;32497;48.936;9.270;2023-06-05T17:20:43;3.22;;;2.38;;
46751;SDS011;32497;48.936;9.270;2023-06-05T17:25:44;3.05;;;2.67;;
46751;SDS011;32497;48.936;9.270;2023-06-05T17:30:46;2.47;;;2.00;;
46751;SDS011;32497;48.936;9.270;2023-06-05T17:35:47;5.00;;;2.33;;
46751;SDS011;32497;48.936;9.270;2023-06-05T17:40:51;5.05;;;2.22;;
46751;SDS011;32497;48.936;9.270;2023-06-05T17:45:53;3.80;;;2.45;;
46751;SDS011;32497;48.936;9.270;2023-06-05T17:50:54;6.57;;;2.40;;
46751;SDS011;32497;48.936;9.270;2023-06-05T17:55:55;3.42;;;2.67;;
46751;SDS011;32497;48.936;9.270;2023-06-05T18:00:58;4.15;;;2.70;;
46751;SDS011;32497;48.936;9.270;2023-06-05T18:05:59;3.65;;;2.15;;
46751;SDS011;32497;48.936;9.270;2023-06-05T18:11:00;5.78;;;2.78;;
46751;SDS011;32497;48.936;9.270;2023-06-05T18:16:02;4.18;;;2.40;;
46751;SDS011;32497;48.936;9.270;2023-06-05T18:21:04;3.60;;;2.47;;
46751;SDS011;32497;48.936;9.270;2023-06-05T18:26:05;3.53;;;2.75;;
46751;SDS011;32497;48.936;9.270;2023-06-05T18:31:08;3.88;;;3.08;;
46751;SDS011;32497;48.936;9.270;2023-06-05T18:36:09;6.35;;;3.05;;
46751;SDS011;32497;48.936;9.270;2023-06-05T18:41:10;3.92;;;2.78;;
46751;SDS011;32497;48.936;9.270;2023-06-05T18:46:12;4.45;;;2.75;;
46751;SDS011;32497;48.936;9.270;2023-06-05T18:51:13;4.60;;;3.00;;
46751;SDS011;32497;48.936;9.270;2023-06-05T18:56:15;3.97;;;2.70;;
46751;SDS011;32497;48.936;9.270;2023-06-05T19:01:17;4.38;;;3.28;;
46751;SDS011;32497;48.936;9.270;2023-06-05T19:06:18;3.92;;;3.10;;
46751;SDS011;32497;48.936;9.270;2023-06-05T19:11:19;7.72;;;3.17;;
46751;SDS011;32497;48.936;9.270;2023-06-05T19:16:22;4.97;;;2.80;;
46751;SDS011;32497;48.936;9.270;2023-06-05T19:21:23;7.75;;;3.83;;
46751;SDS011;32497;48.936;9.270;2023-06-05T19:26:24;7.97;;;3.60;;
46751;SDS011;32497;48.936;9.270;2023-06-05T19:31:27;5.28;;;3.38;;
46751;SDS011;32497;48.936;9.270;2023-06-05T19:36:28;5.22;;;2.75;;
46751;SDS011;32497;48.936;9.270;2023-06-05T19:41:29;4.15;;;2.53;;
46751;SDS011;32497;48.936;9.270;2023-06-05T19:46:35;5.90;;;2.78;;
46751;SDS011;32497;48.936;9.270;2023-06-05T19:51:37;3.75;;;2.25;;
46751;SDS011;32497;48.936;9.270;2023-06-05T19:56:38;3.72;;;2.10;;
46751;SDS011;32497;48.936;9.270;2023-06-05T20:01:40;3.40;;;1.80;;
46751;SDS011;32497;48.936;9.270;2023-06-05T20:06:42;4.07;;;2.00;;
46751;SDS011;32497;48.936;9.270;2023-06-05T20:11:43;1.90;;;1.58;;
46751;SDS011;32497;48.936;9.270;2023-06-05T20:16:45;2.55;;;1.60;;
46751;SDS011;32497;48.936;9.270;2023-06-05T20:21:46;2.00;;;1.27;;
46751;SDS011;32497;48.936;9.270;2023-06-05T20:26:47;2.15;;;1.20;;
46751;SDS011;32497;48.936;9.270;2023-06-05T20:31:50;2.50;;;1.38;;
46751;SDS011;32497;48.936;9.270;2023-06-05T20:36:51;2.20;;;1.33;;
46751;SDS011;32497;48.936;9.270;2023-06-05T20:41:52;2.17;;;1.20;;
46751;SDS011;32497;48.936;9.270;2023-06-05T20:46:55;2.70;;;1.45;;
46751;SDS011;32497;48.936;9.270;2023-06-05T20:52:16;2.08;;;1.17;;
46751;SDS011;32497;48.936;9.270;2023-06-05T20:57:37;1.73;;;1.15;;
46751;SDS011;32497;48.936;9.270;2023-06-05T21:03:00;1.60;;;1.30;;
46751;SDS011;32497;48.936;9.270;2023-06-05T21:13:37;1.98;;;1.30;;
46751;SDS011;32497;48.936;9.270;2023-06-05T21:18:40;1.80;;;1.30;;
46751;SDS011;32497;48.936;9.270;2023-06-05T21:23:41;3.08;;;1.50;;
46751;SDS011;32497;48.936;9.270;2023-06-05T21:28:42;2.25;;;1.50;;
46751;SDS011;32497;48.936;9.270;2023-06-05T21:33:44;1.75;;;1.45;;
46751;SDS011;32497;48.936;9.270;2023-06-05T21:38:45;2.53;;;1.60;;
46751;SDS011;32497;48.936;9.270;2023-06-05T21:43:46;2.47;;;1.30;;
46751;SDS011;32497;48.936;9.270;2023-06-05T21:48:49;2.08;;;1.30;;
46751;SDS011;32497;48.936;9.270;2023-06-05T21:53:50;1.40;;;1.23;;
46751;SDS011;32497;48.936;9.270;2023-06-05T21:58:51;2.90;;;1.60;;
46751;SDS011;32497;48.936;9.270;2023-06-05T22:03:53;3.35;;;1.60;;
46751;SDS011;32497;48.936;9.270;2023-06-05T22:08:55;2.17;;;1.63;;
46751;SDS011;32497;48.936;9.270;2023-06-05T22:13:56;3.35;;;1.70;;
46751;SDS011;32497;48.936;9.270;2023-06-05T22:18:58;2.28;;;1.40;;
46751;SDS011;32497;48.936;9.270;2023-06-05T22:23:59;3.10;;;1.50;;
46751;SDS011;32497;48.936;9.270;2023-06-05T22:29:01;1.80;;;1.50;;
46751;SDS011;32497;48.936;9.270;2023-06-05T22:34:05;3.03;;;1.90;;
46751;SDS011;32497;48.936;9.270;2023-06-05T22:39:06;1.92;;;1.55;;
46751;SDS011;32497;48.936;9.270;2023-06-05T22:44:07;2.65;;;1.90;;
46751;SDS011;32497;48.936;9.270;2023-06-05T22:49:09;3.17;;;1.80;;
46751;SDS011;32497;48.936;9.270;2023-06-05T22:54:10;3.38;;;2.10;;
46751;SDS011;32497;48.936;9.270;2023-06-05T22:59:11;2.40;;;1.92;;
46751;SDS011;32497;48.936;9.270;2023-06-05T23:04:14;3.28;;;2.40;;
46751;SDS011;32497;48.936;9.270;2023-06-05T23:09:15;3.03;;;2.30;;
46751;SDS011;32497;48.936;9.270;2023-06-05T23:14:16;3.33;;;2.70;;
46751;SDS011;32497;48.936;9.270;2023-06-05T23:19:18;3.47;;;2.60;;
46751;SDS011;32497;48.936;9.270;2023-06-05T23:24:20;5.90;;;2.50;;
46751;SDS011;32497;48.936;9.270;2023-06-05T23:29:21;3.60;;;2.70;;
46751;SDS011;32497;48.936;9.270;2023-06-05T23:34:23;4.07;;;2.70;;
46751;SDS011;32497;48.936;9.270;2023-06-05T23:39:24;3.92;;;2.65;;
46751;SDS011;32497;48.936;9.270;2023-06-05T23:44:25;3.97;;;2.90;;
46751;SDS011;32497;48.936;9.270;2023-06-05T23:49:28;4.55;;;2.92;;
46751;SDS011;32497;48.936;9.270;2023-06-05T23:54:29;7.05;;;3.05;;
46751;SDS011;32497;48.936;9.270;2023-06-05T23:59:30;4.35;;;2.90;;
